sensor_id;sensor_type;location;lat;lon;timestamp;temperature;humidity
21493;DHT22;10908;50.690;4.400;2023-08-17T00:00:15;19.20;79.50
21493;DHT22;10908;50.690;4.400;2023-08-17T00:02:43;19.20;79.50
21493;DHT22;10908;50.690;4.400;2023-08-17T00:05:09;19.30;79.20
21493;DHT22;10908;50.690;4.400;2023-08-17T00:07:35;19.30;79.00
21493;DHT22;10908;50.690;4.400;2023-08-17T00:10:02;19.40;78.70
21493;DHT22;10908;50.690;4.400;2023-08-17T00:12:28;19.30;78.30
21493;DHT22;10908;50.690;4.400;2023-08-17T00:14:54;19.30;78.20
21493;DHT22;10908;50.690;4.400;2023-08-17T00:17:20;19.20;78.20
21493;DHT22;10908;50.690;4.400;2023-08-17T00:19:46;19.10;78.60
21493;DHT22;10908;50.690;4.400;2023-08-17T00:22:12;19.10;79.00
21493;DHT22;10908;50.690;4.400;2023-08-17T00:24:38;19.10;79.10
21493;DHT22;10908;50.690;4.400;2023-08-17T00:27:06;19.10;78.90
21493;DHT22;10908;50.690;4.400;2023-08-17T00:29:32;19.10;78.90
21493;DHT22;10908;50.690;4.400;2023-08-17T00:31:57;18.90;78.90
21493;DHT22;10908;50.690;4.400;2023-08-17T00:34:23;18.90;79.10
21493;DHT22;10908;50.690;4.400;2023-08-17T00:36:48;18.90;79.20
21493;DHT22;10908;50.690;4.400;2023-08-17T00:39:14;19.00;78.90
21493;DHT22;10908;50.690;4.400;2023-08-17T00:41:40;19.10;78.50
21493;DHT22;10908;50.690;4.400;2023-08-17T00:44:06;19.10;78.10
21493;DHT22;10908;50.690;4.400;2023-08-17T00:46:32;19.10;77.90
21493;DHT22;10908;50.690;4.400;2023-08-17T00:48:58;19.00;78.50
21493;DHT22;10908;50.690;4.400;2023-08-17T00:51:24;18.80;78.60
21493;DHT22;10908;50.690;4.400;2023-08-17T00:53:53;18.80;79.10
21493;DHT22;10908;50.690;4.400;2023-08-17T00:56:20;18.80;78.30
21493;DHT22;10908;50.690;4.400;2023-08-17T00:58:47;18.90;78.00
21493;DHT22;10908;50.690;4.400;2023-08-17T01:01:14;18.90;78.10
21493;DHT22;10908;50.690;4.400;2023-08-17T01:03:40;18.80;77.80
21493;DHT22;10908;50.690;4.400;2023-08-17T01:06:09;18.90;77.60
21493;DHT22;10908;50.690;4.400;2023-08-17T01:08:36;18.90;77.30
21493;DHT22;10908;50.690;4.400;2023-08-17T01:11:12;18.90;77.00
21493;DHT22;10908;50.690;4.400;2023-08-17T01:16:26;18.70;77.80
21493;DHT22;10908;50.690;4.400;2023-08-17T01:18:54;18.70;77.80
21493;DHT22;10908;50.690;4.400;2023-08-17T01:21:21;18.60;77.90
21493;DHT22;10908;50.690;4.400;2023-08-17T01:23:50;18.70;77.80
21493;DHT22;10908;50.690;4.400;2023-08-17T01:26:16;18.80;77.40
21493;DHT22;10908;50.690;4.400;2023-08-17T01:28:44;18.80;77.30
21493;DHT22;10908;50.690;4.400;2023-08-17T01:33:56;18.80;77.50
21493;DHT22;10908;50.690;4.400;2023-08-17T01:36:32;18.80;77.20
21493;DHT22;10908;50.690;4.400;2023-08-17T01:39:00;18.80;77.30
21493;DHT22;10908;50.690;4.400;2023-08-17T01:41:27;18.70;77.70
21493;DHT22;10908;50.690;4.400;2023-08-17T01:43:54;18.70;77.70
21493;DHT22;10908;50.690;4.400;2023-08-17T15:54:36;21.40;77.30
21493;DHT22;10908;50.690;4.400;2023-08-17T15:57:03;21.50;77.40
21493;DHT22;10908;50.690;4.400;2023-08-17T15:59:29;21.80;77.40
21493;DHT22;10908;50.690;4.400;2023-08-17T16:01:55;21.90;76.10
21493;DHT22;10908;50.690;4.400;2023-08-17T16:04:20;21.70;76.20
21493;DHT22;10908;50.690;4.400;2023-08-17T16:06:46;21.60;77.20
21493;DHT22;10908;50.690;4.400;2023-08-17T16:09:12;21.60;77.20
21493;DHT22;10908;50.690;4.400;2023-08-17T16:11:37;21.50;77.50
21493;DHT22;10908;50.690;4.400;2023-08-17T16:14:05;21.60;77.30
21493;DHT22;10908;50.690;4.400;2023-08-17T16:16:30;21.60;76.40
21493;DHT22;10908;50.690;4.400;2023-08-17T16:18:56;21.60;76.80
21493;DHT22;10908;50.690;4.400;2023-08-17T16:21:21;21.40;77.40
21493;DHT22;10908;50.690;4.400;2023-08-17T16:23:47;21.40;77.30
21493;DHT22;10908;50.690;4.400;2023-08-17T16:26:13;21.60;77.60
21493;DHT22;10908;50.690;4.400;2023-08-17T16:28:39;21.60;77.80
21493;DHT22;10908;50.690;4.400;2023-08-17T16:31:04;21.80;77.10
21493;DHT22;10908;50.690;4.400;2023-08-17T16:33:30;21.60;77.00
21493;DHT22;10908;50.690;4.400;2023-08-17T16:35:56;21.60;77.10
21493;DHT22;10908;50.690;4.400;2023-08-17T16:38:21;21.60;76.80
21493;DHT22;10908;50.690;4.400;2023-08-17T16:40:47;21.80;76.60
21493;DHT22;10908;50.690;4.400;2023-08-17T16:43:14;21.90;76.20
21493;DHT22;10908;50.690;4.400;2023-08-17T16:45:40;22.00;75.80
21493;DHT22;10908;50.690;4.400;2023-08-17T16:48:06;21.80;75.80
21493;DHT22;10908;50.690;4.400;2023-08-17T16:50:32;21.70;76.00
21493;DHT22;10908;50.690;4.400;2023-08-17T16:52:57;21.50;76.80
21493;DHT22;10908;50.690;4.400;2023-08-17T16:55:23;21.40;77.40
21493;DHT22;10908;50.690;4.400;2023-08-17T16:57:49;21.20;77.70
21493;DHT22;10908;50.690;4.400;2023-08-17T17:00:15;21.30;77.90
21493;DHT22;10908;50.690;4.400;2023-08-17T17:02:40;21.40;77.70
21493;DHT22;10908;50.690;4.400;2023-08-17T17:05:06;21.40;77.90
21493;DHT22;10908;50.690;4.400;2023-08-17T17:07:32;21.60;77.60
21493;DHT22;10908;50.690;4.400;2023-08-17T17:09:58;21.80;77.40
21493;DHT22;10908;50.690;4.400;2023-08-17T17:12:24;21.80;76.80
21493;DHT22;10908;50.690;4.400;2023-08-17T17:14:50;21.70;77.60
21493;DHT22;10908;50.690;4.400;2023-08-17T17:17:15;21.80;77.00
21493;DHT22;10908;50.690;4.400;2023-08-17T17:19:41;21.80;76.80
21493;DHT22;10908;50.690;4.400;2023-08-17T17:22:07;21.90;76.80
21493;DHT22;10908;50.690;4.400;2023-08-17T17:24:33;21.90;76.70
21493;DHT22;10908;50.690;4.400;2023-08-17T17:26:58;22.00;76.60
21493;DHT22;10908;50.690;4.400;2023-08-17T17:29:24;22.20;76.20
21493;DHT22;10908;50.690;4.400;2023-08-17T17:31:50;22.30;75.80
21493;DHT22;10908;50.690;4.400;2023-08-17T17:34:16;22.20;75.70
21493;DHT22;10908;50.690;4.400;2023-08-17T17:36:41;21.90;76.20
21493;DHT22;10908;50.690;4.400;2023-08-17T17:39:07;21.80;76.90
21493;DHT22;10908;50.690;4.400;2023-08-17T17:41:33;21.70;76.90
21493;DHT22;10908;50.690;4.400;2023-08-17T17:43:58;21.70;77.00
21493;DHT22;10908;50.690;4.400;2023-08-17T17:46:24;21.70;77.30
21493;DHT22;10908;50.690;4.400;2023-08-17T17:48:50;21.50;77.30
21493;DHT22;10908;50.690;4.400;2023-08-17T17:51:16;21.30;77.80
21493;DHT22;10908;50.690;4.400;2023-08-17T17:53:42;21.10;78.50
21493;DHT22;10908;50.690;4.400;2023-08-17T17:56:10;21.00;79.10
21493;DHT22;10908;50.690;4.400;2023-08-17T17:58:37;20.90;79.20
21493;DHT22;10908;50.690;4.400;2023-08-17T18:01:03;21.00;79.60
21493;DHT22;10908;50.690;4.400;2023-08-17T18:03:29;21.10;79.30
21493;DHT22;10908;50.690;4.400;2023-08-17T18:05:54;21.10;79.50
21493;DHT22;10908;50.690;4.400;2023-08-17T18:08:20;21.10;79.40
21493;DHT22;10908;50.690;4.400;2023-08-17T18:10:47;21.20;79.50
21493;DHT22;10908;50.690;4.400;2023-08-17T18:13:13;21.30;79.60
21493;DHT22;10908;50.690;4.400;2023-08-17T18:15:39;21.20;79.30
21493;DHT22;10908;50.690;4.400;2023-08-17T18:18:05;21.30;79.30
21493;DHT22;10908;50.690;4.400;2023-08-17T18:20:31;21.10;79.00
21493;DHT22;10908;50.690;4.400;2023-08-17T18:22:57;21.00;79.40
21493;DHT22;10908;50.690;4.400;2023-08-17T18:25:23;21.00;79.50
21493;DHT22;10908;50.690;4.400;2023-08-17T18:27:50;20.90;79.90
21493;DHT22;10908;50.690;4.400;2023-08-17T18:30:16;20.80;80.30
21493;DHT22;10908;50.690;4.400;2023-08-17T18:32:42;20.80;80.60
21493;DHT22;10908;50.690;4.400;2023-08-17T18:35:08;20.80;80.60
21493;DHT22;10908;50.690;4.400;2023-08-17T18:37:34;20.80;80.50
21493;DHT22;10908;50.690;4.400;2023-08-17T18:39:59;20.80;80.60
21493;DHT22;10908;50.690;4.400;2023-08-17T18:42:25;20.70;80.80
21493;DHT22;10908;50.690;4.400;2023-08-17T18:44:55;20.50;81.40
21493;DHT22;10908;50.690;4.400;2023-08-17T18:47:21;20.50;81.60
21493;DHT22;10908;50.690;4.400;2023-08-17T18:49:50;20.50;81.80
21493;DHT22;10908;50.690;4.400;2023-08-17T18:52:16;20.50;81.90
21493;DHT22;10908;50.690;4.400;2023-08-17T18:55:01;20.50;81.90
21493;DHT22;10908;50.690;4.400;2023-08-17T18:57:28;20.40;82.00
21493;DHT22;10908;50.690;4.400;2023-08-17T18:59:55;20.40;82.20
21493;DHT22;10908;50.690;4.400;2023-08-17T19:02:21;20.50;82.40
21493;DHT22;10908;50.690;4.400;2023-08-17T19:04:47;20.50;82.20
21493;DHT22;10908;50.690;4.400;2023-08-17T19:07:14;20.40;82.20
21493;DHT22;10908;50.690;4.400;2023-08-17T19:09:40;20.40;82.50
21493;DHT22;10908;50.690;4.400;2023-08-17T19:12:05;20.30;82.80
21493;DHT22;10908;50.690;4.400;2023-08-17T19:14:31;20.30;82.90
21493;DHT22;10908;50.690;4.400;2023-08-17T19:16:58;20.30;82.90
21493;DHT22;10908;50.690;4.400;2023-08-17T19:19:24;20.40;83.00
21493;DHT22;10908;50.690;4.400;2023-08-17T19:21:50;20.30;83.00
21493;DHT22;10908;50.690;4.400;2023-08-17T19:24:16;20.30;83.20
21493;DHT22;10908;50.690;4.400;2023-08-17T19:26:41;20.20;83.40
21493;DHT22;10908;50.690;4.400;2023-08-17T19:29:07;20.30;83.60
21493;DHT22;10908;50.690;4.400;2023-08-17T19:31:35;20.40;83.20
21493;DHT22;10908;50.690;4.400;2023-08-17T19:34:03;20.40;83.10
21493;DHT22;10908;50.690;4.400;2023-08-17T19:36:29;20.30;83.20
21493;DHT22;10908;50.690;4.400;2023-08-17T19:38:54;20.40;83.30
21493;DHT22;10908;50.690;4.400;2023-08-17T19:41:20;20.40;82.80
21493;DHT22;10908;50.690;4.400;2023-08-17T19:43:46;20.50;82.70
21493;DHT22;10908;50.690;4.400;2023-08-17T19:46:11;20.60;82.50
21493;DHT22;10908;50.690;4.400;2023-08-17T19:48:37;20.50;82.50
21493;DHT22;10908;50.690;4.400;2023-08-17T19:51:03;20.60;82.30
21493;DHT22;10908;50.690;4.400;2023-08-17T19:53:29;20.40;82.60
21493;DHT22;10908;50.690;4.400;2023-08-17T19:55:58;20.10;83.30
21493;DHT22;10908;50.690;4.400;2023-08-17T19:58:24;20.10;83.60
21493;DHT22;10908;50.690;4.400;2023-08-17T20:00:52;20.20;83.50
21493;DHT22;10908;50.690;4.400;2023-08-17T20:03:19;20.20;83.10
21493;DHT22;10908;50.690;4.400;2023-08-17T20:05:46;20.30;83.10
21493;DHT22;10908;50.690;4.400;2023-08-17T20:08:11;20.30;82.90
21493;DHT22;10908;50.690;4.400;2023-08-17T20:10:38;20.10;83.10
21493;DHT22;10908;50.690;4.400;2023-08-17T20:13:04;20.00;83.40
21493;DHT22;10908;50.690;4.400;2023-08-17T20:15:30;19.90;84.00
21493;DHT22;10908;50.690;4.400;2023-08-17T20:17:56;19.80;84.20
21493;DHT22;10908;50.690;4.400;2023-08-17T20:20:23;19.70;84.60
21493;DHT22;10908;50.690;4.400;2023-08-17T20:22:48;19.70;84.80
21493;DHT22;10908;50.690;4.400;2023-08-17T20:25:14;19.70;84.90
21493;DHT22;10908;50.690;4.400;2023-08-17T20:27:43;19.60;85.00
21493;DHT22;10908;50.690;4.400;2023-08-17T20:30:09;19.60;85.20
21493;DHT22;10908;50.690;4.400;2023-08-17T20:32:36;19.50;85.30
21493;DHT22;10908;50.690;4.400;2023-08-17T20:35:02;19.40;85.40
21493;DHT22;10908;50.690;4.400;2023-08-17T20:37:28;19.40;85.60
21493;DHT22;10908;50.690;4.400;2023-08-17T20:39:54;19.40;85.70
21493;DHT22;10908;50.690;4.400;2023-08-17T20:42:20;19.30;86.10
21493;DHT22;10908;50.690;4.400;2023-08-17T20:44:45;19.30;86.30
21493;DHT22;10908;50.690;4.400;2023-08-17T20:47:11;19.20;86.50
21493;DHT22;10908;50.690;4.400;2023-08-17T20:49:37;19.30;86.70
21493;DHT22;10908;50.690;4.400;2023-08-17T20:52:06;19.10;86.70
21493;DHT22;10908;50.690;4.400;2023-08-17T20:54:31;19.10;86.80
21493;DHT22;10908;50.690;4.400;2023-08-17T20:56:57;19.10;87.10
21493;DHT22;10908;50.690;4.400;2023-08-17T20:59:23;19.10;87.20
21493;DHT22;10908;50.690;4.400;2023-08-17T21:01:49;19.10;87.20
21493;DHT22;10908;50.690;4.400;2023-08-17T21:04:15;19.30;87.20
21493;DHT22;10908;50.690;4.400;2023-08-17T21:06:40;19.30;87.00
21493;DHT22;10908;50.690;4.400;2023-08-17T21:09:08;19.30;86.70
21493;DHT22;10908;50.690;4.400;2023-08-17T21:11:34;19.30;86.50
21493;DHT22;10908;50.690;4.400;2023-08-17T21:14:01;19.40;86.50
21493;DHT22;10908;50.690;4.400;2023-08-17T21:16:27;19.50;86.40
21493;DHT22;10908;50.690;4.400;2023-08-17T21:18:53;19.40;86.20
21493;DHT22;10908;50.690;4.400;2023-08-17T21:21:25;19.30;86.40
21493;DHT22;10908;50.690;4.400;2023-08-17T21:23:50;19.30;86.60
21493;DHT22;10908;50.690;4.400;2023-08-17T21:26:17;19.20;86.90
21493;DHT22;10908;50.690;4.400;2023-08-17T21:28:42;19.40;86.90
21493;DHT22;10908;50.690;4.400;2023-08-17T21:31:08;19.40;86.90
21493;DHT22;10908;50.690;4.400;2023-08-17T21:33:34;19.40;86.50
21493;DHT22;10908;50.690;4.400;2023-08-17T21:35:59;19.40;86.50
21493;DHT22;10908;50.690;4.400;2023-08-17T21:38:25;19.40;86.60
21493;DHT22;10908;50.690;4.400;2023-08-17T21:40:57;19.30;87.00
21493;DHT22;10908;50.690;4.400;2023-08-17T21:43:23;19.20;87.10
21493;DHT22;10908;50.690;4.400;2023-08-17T21:45:49;19.10;87.50
21493;DHT22;10908;50.690;4.400;2023-08-17T21:48:15;19.10;87.70
21493;DHT22;10908;50.690;4.400;2023-08-17T21:50:41;19.10;87.80
21493;DHT22;10908;50.690;4.400;2023-08-17T21:53:07;19.20;87.80
21493;DHT22;10908;50.690;4.400;2023-08-17T21:55:34;19.30;87.80
21493;DHT22;10908;50.690;4.400;2023-08-17T21:58:01;19.30;87.60
21493;DHT22;10908;50.690;4.400;2023-08-17T22:00:27;19.20;87.60
21493;DHT22;10908;50.690;4.400;2023-08-17T22:02:53;19.20;87.70
21493;DHT22;10908;50.690;4.400;2023-08-17T22:05:18;19.30;87.70
21493;DHT22;10908;50.690;4.400;2023-08-17T22:07:44;19.30;87.40
21493;DHT22;10908;50.690;4.400;2023-08-17T22:10:10;19.30;87.40
21493;DHT22;10908;50.690;4.400;2023-08-17T22:12:37;19.40;87.40
21493;DHT22;10908;50.690;4.400;2023-08-17T22:15:03;19.40;87.10
21493;DHT22;10908;50.690;4.400;2023-08-17T22:17:29;19.30;87.30
21493;DHT22;10908;50.690;4.400;2023-08-17T22:19:55;19.40;87.40
21493;DHT22;10908;50.690;4.400;2023-08-17T22:22:21;19.30;87.40
21493;DHT22;10908;50.690;4.400;2023-08-17T22:24:47;19.30;87.50
21493;DHT22;10908;50.690;4.400;2023-08-17T22:27:13;19.30;87.50
21493;DHT22;10908;50.690;4.400;2023-08-17T22:29:39;19.40;87.50
21493;DHT22;10908;50.690;4.400;2023-08-17T22:32:04;19.30;87.50
21493;DHT22;10908;50.690;4.400;2023-08-17T22:34:30;19.30;87.60
21493;DHT22;10908;50.690;4.400;2023-08-17T22:36:56;19.30;87.80
21493;DHT22;10908;50.690;4.400;2023-08-17T22:39:21;19.30;87.70
21493;DHT22;10908;50.690;4.400;2023-08-17T22:41:47;19.40;87.50
21493;DHT22;10908;50.690;4.400;2023-08-17T22:44:13;19.50;87.40
21493;DHT22;10908;50.690;4.400;2023-08-17T22:46:39;19.50;87.20
21493;DHT22;10908;50.690;4.400;2023-08-17T22:49:05;19.30;87.20
21493;DHT22;10908;50.690;4.400;2023-08-17T22:51:31;19.40;87.40
21493;DHT22;10908;50.690;4.400;2023-08-17T22:53:57;19.30;87.50
21493;DHT22;10908;50.690;4.400;2023-08-17T22:56:24;19.30;87.50
21493;DHT22;10908;50.690;4.400;2023-08-17T22:58:49;19.30;87.50
21493;DHT22;10908;50.690;4.400;2023-08-17T23:01:15;19.40;87.40
21493;DHT22;10908;50.690;4.400;2023-08-17T23:03:41;19.30;87.30
21493;DHT22;10908;50.690;4.400;2023-08-17T23:06:07;19.30;87.40
21493;DHT22;10908;50.690;4.400;2023-08-17T23:08:33;19.20;87.50
21493;DHT22;10908;50.690;4.400;2023-08-17T23:11:01;19.20;87.60
21493;DHT22;10908;50.690;4.400;2023-08-17T23:13:26;19.30;87.80
21493;DHT22;10908;50.690;4.400;2023-08-17T23:15:53;19.30;87.60
21493;DHT22;10908;50.690;4.400;2023-08-17T23:18:19;19.30;87.50
21493;DHT22;10908;50.690;4.400;2023-08-17T23:20:44;19.30;87.40
21493;DHT22;10908;50.690;4.400;2023-08-17T23:23:11;19.30;87.40
21493;DHT22;10908;50.690;4.400;2023-08-17T23:25:37;19.30;87.40
21493;DHT22;10908;50.690;4.400;2023-08-17T23:28:03;19.30;87.30
21493;DHT22;10908;50.690;4.400;2023-08-17T23:30:29;19.20;87.50
21493;DHT22;10908;50.690;4.400;2023-08-17T23:32:54;19.20;87.60
21493;DHT22;10908;50.690;4.400;2023-08-17T23:35:22;19.20;87.60
21493;DHT22;10908;50.690;4.400;2023-08-17T23:37:48;19.20;87.70
21493;DHT22;10908;50.690;4.400;2023-08-17T23:40:14;19.20;87.80
21493;DHT22;10908;50.690;4.400;2023-08-17T23:42:41;19.20;87.80
21493;DHT22;10908;50.690;4.400;2023-08-17T23:45:07;19.20;87.70
21493;DHT22;10908;50.690;4.400;2023-08-17T23:47:34;19.20;87.90
21493;DHT22;10908;50.690;4.400;2023-08-17T23:50:00;19.30;87.80
21493;DHT22;10908;50.690;4.400;2023-08-17T23:52:26;19.40;87.70
21493;DHT22;10908;50.690;4.400;2023-08-17T23:54:52;19.30;87.40
21493;DHT22;10908;50.690;4.400;2023-08-17T23:57:17;19.30;87.50
21493;DHT22;10908;50.690;4.400;2023-08-17T23:59:43;19.30;87.40
